createdAt,value
2022-12-26T00:04:51.069Z,101141.16
2022-12-26T00:10:09.619Z,101141.81
2022-12-26T00:15:31.784Z,101153.06
2022-12-26T00:20:54.263Z,101165.34
2022-12-26T00:26:22.118Z,101160.16
2022-12-26T00:31:44.318Z,101149.56
2022-12-26T00:37:06.904Z,101149.91
2022-12-26T00:42:28.823Z,101151.34
2022-12-26T00:47:51.085Z,101171.25
2022-12-26T00:53:13.443Z,101183.09
2022-12-26T00:58:36.979Z,101201.47
2022-12-26T01:03:59.439Z,101191.13
2022-12-26T01:09:21.763Z,101172.09
2022-12-26T01:14:43.783Z,101175.19
2022-12-26T01:20:06.616Z,101194.38
2022-12-26T01:25:28.823Z,101182.88
2022-12-26T01:30:51.497Z,101201.91
2022-12-26T01:36:23.415Z,101201.34
2022-12-26T01:41:45.913Z,101193.41
2022-12-26T01:47:07.737Z,101193.50
2022-12-26T01:52:37.950Z,101203.69
2022-12-26T01:58:10.446Z,101201.91
2022-12-26T02:03:51.638Z,101199.06
2022-12-26T02:09:13.964Z,101208.50
2022-12-26T02:14:37.733Z,101217.63
2022-12-26T02:20:11.719Z,101217.97
2022-12-26T02:25:36.651Z,101209.44
2022-12-26T02:31:22.963Z,101206.75
2022-12-26T02:37:12.561Z,101220.59
2022-12-26T02:42:34.791Z,101222.72
2022-12-26T02:48:44.829Z,101204.63
2022-12-26T02:54:44.187Z,101224.34
2022-12-26T03:00:31.854Z,101207.09
2022-12-26T03:06:19.750Z,101198.25
2022-12-26T03:12:02.703Z,101229.09
2022-12-26T03:17:43.902Z,101251.91
2022-12-26T03:23:15.970Z,101228.59
2022-12-26T03:28:40.080Z,101256.72
2022-12-26T03:34:19.295Z,101242.53
2022-12-26T03:40:21.783Z,101270.47
2022-12-26T03:46:21.558Z,101274.03
2022-12-26T03:52:18.584Z,101276.44
2022-12-26T03:58:10.874Z,101294.00
2022-12-26T04:03:53.666Z,101298.91
2022-12-26T04:10:29.827Z,101299.22
2022-12-26T04:16:24.984Z,101283.44
2022-12-26T04:22:12.513Z,101291.97
2022-12-26T04:27:53.571Z,101300.28
2022-12-26T04:33:43.422Z,101303.94
2022-12-26T04:39:28.152Z,101303.97
2022-12-26T04:44:51.458Z,101311.78
2022-12-26T04:50:14.805Z,101291.66
2022-12-26T04:55:37.016Z,101322.31
2022-12-26T05:01:18.885Z,101328.00
2022-12-26T05:07:05.711Z,101311.88
2022-12-26T05:12:35.084Z,101322.97
2022-12-26T05:18:15.812Z,101311.84
2022-12-26T05:24:00.339Z,101346.63
2022-12-26T05:29:26.482Z,101335.25
2022-12-26T05:34:50.604Z,101338.41
2022-12-26T05:40:12.987Z,101362.63
2022-12-26T05:45:34.732Z,101362.69
2022-12-26T05:51:05.072Z,101360.66
2022-12-26T05:56:27.593Z,101375.50
2022-12-26T06:01:49.684Z,101370.59
2022-12-26T06:07:11.999Z,101353.53
2022-12-26T06:12:34.888Z,101410.09
2022-12-26T06:17:57.288Z,101389.41
2022-12-26T06:23:19.261Z,101380.47
2022-12-26T06:28:43.282Z,101390.88
2022-12-26T06:34:06.588Z,101385.72
2022-12-26T06:39:29.174Z,101382.97
2022-12-26T06:44:51.463Z,101418.00
2022-12-26T06:50:13.977Z,101407.03
2022-12-26T06:55:35.956Z,101406.38
2022-12-26T07:01:08.001Z,101421.72
2022-12-26T07:06:35.649Z,101424.81
2022-12-26T07:12:00.175Z,101430.22
2022-12-26T07:41:59.497Z,101451.56
2022-12-26T07:47:21.634Z,101447.31
2022-12-26T07:52:43.785Z,101433.81
2022-12-26T07:58:10.331Z,101430.78
2022-12-26T08:03:38.983Z,101426.81
2022-12-26T08:09:11.950Z,101451.19
2022-12-26T08:14:54.217Z,101445.78
2022-12-26T08:20:16.129Z,101444.53
2022-12-26T08:25:38.134Z,101466.47
2022-12-26T08:31:10.696Z,101454.19
2022-12-26T08:36:33.106Z,101470.97
2022-12-26T08:41:57.810Z,101477.28
2022-12-26T08:47:20.587Z,101462.97
2022-12-26T08:52:43.632Z,101465.84
2022-12-26T08:58:05.924Z,101499.06
2022-12-26T09:03:28.065Z,101477.53
2022-12-26T09:08:50.609Z,101501.22
2022-12-26T09:14:13.136Z,101476.44
2022-12-26T09:19:38.430Z,101476.44
2022-12-26T09:25:00.523Z,101483.47
2022-12-26T09:30:24.464Z,101508.81
2022-12-26T09:35:47.002Z,101487.16
2022-12-26T09:41:43.623Z,101521.75
2022-12-26T09:47:27.085Z,101510.44
2022-12-26T09:53:00.172Z,101495.94
2022-12-26T09:58:30.602Z,101531.81
2022-12-26T10:03:57.381Z,101513.63
2022-12-26T10:09:50.229Z,101486.06
2022-12-26T10:15:14.891Z,101515.38
2022-12-26T10:20:46.225Z,101495.81
2022-12-26T10:26:19.422Z,101512.22
2022-12-26T10:32:07.674Z,101520.50
2022-12-26T10:37:41.110Z,101492.41
2022-12-26T10:43:24.191Z,101511.69
2022-12-26T10:48:47.413Z,101509.88
2022-12-26T10:54:15.442Z,101513.91
2022-12-26T10:59:44.758Z,101534.22
2022-12-26T11:11:27.056Z,101532.72
2022-12-26T11:16:49.925Z,101534.38
2022-12-26T11:22:23.612Z,101537.16
2022-12-26T11:28:24.814Z,101526.13
2022-12-26T11:33:47.510Z,101523.88
2022-12-26T11:39:38.105Z,101520.03
2022-12-26T11:45:04.366Z,101501.84
2022-12-26T11:50:29.899Z,101512.22
2022-12-26T11:56:02.132Z,101526.00
2022-12-26T12:01:45.211Z,101518.56
2022-12-26T12:07:53.062Z,101534.69
2022-12-26T12:13:57.197Z,101541.16
2022-12-26T12:19:38.320Z,101506.56
2022-12-26T12:25:29.587Z,101502.69
2022-12-26T12:31:30.660Z,101518.69
2022-12-26T12:37:38.651Z,101541.44
2022-12-26T12:43:34.843Z,101545.88
2022-12-26T12:49:05.215Z,101532.50
2022-12-26T12:54:32.944Z,101544.06
2022-12-26T13:00:14.372Z,101544.63
2022-12-26T13:05:56.502Z,101538.72
2022-12-26T13:11:40.943Z,101530.84
2022-12-26T13:17:15.038Z,101528.34
2022-12-26T13:23:03.565Z,101548.34
2022-12-26T13:28:32.901Z,101539.53
2022-12-26T13:33:55.084Z,101519.22
2022-12-26T13:39:26.694Z,101523.25
2022-12-26T13:44:53.639Z,101526.81
2022-12-26T13:50:56.416Z,101534.00
2022-12-26T13:56:19.443Z,101538.41
2022-12-26T14:01:55.055Z,101533.56
2022-12-26T14:07:54.985Z,101542.41
2022-12-26T14:13:56.812Z,101543.53
2022-12-26T14:19:52.042Z,101548.50
2022-12-26T14:25:20.118Z,101538.72
2022-12-26T14:31:11.823Z,101520.75
2022-12-26T14:37:03.824Z,101544.31
2022-12-26T14:42:44.779Z,101547.38
2022-12-26T14:48:15.991Z,101536.34
2022-12-26T14:53:38.793Z,101514.56
2022-12-26T14:59:35.415Z,101542.94
2022-12-26T15:05:15.834Z,101541.41
2022-12-26T15:11:01.626Z,101544.03
2022-12-26T15:16:31.488Z,101550.13
2022-12-26T15:22:04.231Z,101546.53
2022-12-26T15:27:48.235Z,101545.56
2022-12-26T15:33:23.764Z,101543.38
2022-12-26T15:39:04.616Z,101545.69
2022-12-26T15:44:47.229Z,101513.84
2022-12-26T15:50:25.667Z,101515.91
2022-12-26T15:56:15.175Z,101529.13
2022-12-26T16:01:38.717Z,101532.28
2022-12-26T16:07:10.136Z,101520.31
2022-12-26T16:12:35.940Z,101501.72
2022-12-26T16:18:20.971Z,101491.78
2022-12-26T16:23:46.482Z,101493.31
2022-12-26T16:29:10.631Z,101516.19
2022-12-26T16:34:36.630Z,101512.59
2022-12-26T16:40:18.542Z,101521.69
2022-12-26T16:45:41.234Z,101526.13
2022-12-26T16:51:27.746Z,101517.28
2022-12-26T16:56:57.653Z,101502.66
2022-12-26T17:02:37.521Z,101507.06
2022-12-26T17:08:02.149Z,101496.19
2022-12-26T17:13:28.133Z,101484.19
2022-12-26T17:18:55.968Z,101478.94
2022-12-26T17:24:26.262Z,101497.28
2022-12-26T17:29:56.842Z,101496.00
2022-12-26T17:35:24.562Z,101483.88
2022-12-26T17:40:47.897Z,101493.09
2022-12-26T17:46:16.898Z,101458.38
2022-12-26T17:51:39.153Z,101494.63
2022-12-26T17:57:01.563Z,101478.91
2022-12-26T18:02:24.312Z,101469.66
2022-12-26T18:07:47.983Z,101457.97
2022-12-26T18:13:16.409Z,101475.31
2022-12-26T18:18:41.648Z,101473.09
2022-12-26T18:24:07.253Z,101450.47
2022-12-26T18:29:29.521Z,101485.09
2022-12-26T18:34:53.109Z,101467.72
2022-12-26T18:40:39.925Z,101459.75
2022-12-26T18:46:02.389Z,101473.91
2022-12-26T18:51:26.086Z,101455.41
2022-12-26T18:56:48.263Z,101465.75
2022-12-26T19:02:17.507Z,101462.13
2022-12-26T19:07:40.098Z,101421.22
2022-12-26T19:13:06.479Z,101464.19
2022-12-26T19:18:28.631Z,101465.16
2022-12-26T19:23:51.043Z,101446.97
2022-12-26T19:29:12.973Z,101447.66
2022-12-26T19:34:34.737Z,101463.91
2022-12-26T19:39:57.347Z,101456.69
2022-12-26T19:45:19.462Z,101424.88
2022-12-26T19:50:41.794Z,101455.03
2022-12-26T19:56:15.562Z,101446.41
2022-12-26T20:01:37.854Z,101459.91
2022-12-26T20:07:01.363Z,101456.31
2022-12-26T20:12:23.500Z,101425.03
2022-12-26T20:17:45.645Z,101453.69
2022-12-26T20:23:08.008Z,101420.38
2022-12-26T20:28:30.398Z,101434.06
2022-12-26T20:33:53.115Z,101416.59
2022-12-26T20:39:18.343Z,101440.00
2022-12-26T20:44:42.040Z,101412.03
2022-12-26T20:50:04.663Z,101405.00
2022-12-26T20:55:26.573Z,101421.09
2022-12-26T21:00:48.883Z,101425.53
2022-12-26T21:06:15.918Z,101422.91
2022-12-26T21:11:39.732Z,101436.69
2022-12-26T21:17:02.140Z,101415.19
2022-12-26T21:22:24.443Z,101405.97
2022-12-26T21:27:49.607Z,101414.06
2022-12-26T21:33:14.833Z,101397.25
2022-12-26T21:38:37.286Z,101390.41
2022-12-26T21:44:00.038Z,101402.91
2022-12-26T21:49:22.169Z,101410.72
2022-12-26T21:55:02.632Z,101382.63
2022-12-26T22:00:24.883Z,101387.59
2022-12-26T22:05:47.184Z,101389.91
2022-12-26T22:11:36.176Z,101370.50
2022-12-26T22:16:58.446Z,101391.69
2022-12-26T22:22:20.126Z,101358.88
2022-12-26T22:27:42.335Z,101362.53
2022-12-26T22:33:04.657Z,101351.16
2022-12-26T22:38:28.481Z,101362.47
2022-12-26T22:43:54.993Z,101337.00
2022-12-26T22:49:17.035Z,101373.19
2022-12-26T22:54:40.041Z,101361.63
2022-12-26T23:00:08.750Z,101383.25
2022-12-26T23:05:31.684Z,101389.56
2022-12-26T23:10:56.639Z,101377.06
2022-12-26T23:16:32.745Z,101375.41
2022-12-26T23:21:55.440Z,101366.06
2022-12-26T23:27:36.457Z,101374.63
2022-12-26T23:32:59.275Z,101366.53
2022-12-26T23:38:21.213Z,101364.88
2022-12-26T23:43:43.458Z,101363.47
2022-12-26T23:49:05.677Z,101355.34
2022-12-26T23:54:28.106Z,101344.78
2022-12-26T23:59:49.799Z,101347.22
